createdAt,value
2023-02-05T00:00:57.329Z,-0.48
2023-02-05T00:02:04.067Z,-0.47
2023-02-05T00:03:23.430Z,-0.43
2023-02-05T00:04:36.322Z,-0.41
2023-02-05T00:05:40.496Z,-0.37
2023-02-05T00:06:46.071Z,-0.34
2023-02-05T00:07:50.210Z,-0.40
2023-02-05T00:08:54.469Z,-0.37
2023-02-05T00:09:59.184Z,-0.39
2023-02-05T00:11:09.606Z,-0.34
2023-02-05T00:12:22.258Z,-0.34
2023-02-05T00:13:27.073Z,-0.31
2023-02-05T00:14:31.253Z,-0.30
2023-02-05T00:15:40.813Z,-0.37
2023-02-05T00:16:46.546Z,-0.34
2023-02-05T00:17:53.528Z,-0.34
2023-02-05T00:19:21.138Z,-0.34
2023-02-05T00:20:32.529Z,-0.40
2023-02-05T00:21:37.127Z,-0.41
2023-02-05T00:22:42.088Z,-0.40
2023-02-05T00:23:48.367Z,-0.37
2023-02-05T00:24:52.677Z,-0.46
2023-02-05T00:25:57.849Z,-0.49
2023-02-05T00:27:02.447Z,-0.44
2023-02-05T00:28:06.597Z,-0.49
2023-02-05T00:29:15.253Z,-0.52
2023-02-05T00:30:20.106Z,-0.50
2023-02-05T00:31:27.364Z,-0.48
2023-02-05T00:32:31.632Z,-0.44
2023-02-05T00:33:36.188Z,-0.62
2023-02-05T00:34:41.395Z,-0.63
2023-02-05T00:35:46.275Z,-0.64
2023-02-05T00:36:51.095Z,-0.58
2023-02-05T00:37:57.162Z,-0.58
2023-02-05T00:39:02.307Z,-0.60
2023-02-05T00:40:07.583Z,-0.54
2023-02-05T00:41:22.671Z,-0.60
2023-02-05T00:42:27.781Z,-0.66
2023-02-05T00:43:32.912Z,-0.64
2023-02-05T00:44:37.714Z,-0.63
2023-02-05T00:45:42.332Z,-0.64
2023-02-05T00:46:47.282Z,-0.60
2023-02-05T00:47:51.910Z,-0.70
2023-02-05T00:48:56.586Z,-0.66
2023-02-05T00:50:00.858Z,-0.66
2023-02-05T00:51:06.558Z,-0.69
2023-02-05T00:52:15.626Z,-0.67
2023-02-05T00:53:21.938Z,-0.71
2023-02-05T00:54:26.679Z,-0.69
2023-02-05T00:55:32.401Z,-0.68
2023-02-05T00:56:38.040Z,-0.85
2023-02-05T00:57:43.110Z,-0.76
2023-02-05T00:58:51.536Z,-0.72
2023-02-05T00:59:55.326Z,-0.68
2023-02-05T01:00:59.446Z,-0.65
2023-02-05T01:02:03.267Z,-0.67
2023-02-05T01:03:08.180Z,-0.66
2023-02-05T01:04:20.907Z,-0.61
2023-02-05T01:05:27.399Z,-0.59
2023-02-05T01:06:31.345Z,-0.58
2023-02-05T01:07:36.056Z,-0.60
2023-02-05T01:08:40.944Z,-0.62
2023-02-05T01:09:45.403Z,-0.62
2023-02-05T01:10:51.942Z,-0.65
2023-02-05T01:11:55.868Z,-0.61
2023-02-05T01:13:00.035Z,-0.62
2023-02-05T01:14:04.338Z,-0.63
2023-02-05T01:15:15.300Z,-0.57
2023-02-05T01:16:19.375Z,-0.58
2023-02-05T01:17:23.813Z,-0.52
2023-02-05T01:18:27.831Z,-0.52
2023-02-05T01:19:34.667Z,-0.49
2023-02-05T01:20:41.708Z,-0.50
2023-02-05T01:21:46.898Z,-0.59
2023-02-05T01:22:53.174Z,-0.58
2023-02-05T01:24:00.679Z,-0.60
2023-02-05T01:25:06.447Z,-0.72
2023-02-05T01:26:14.591Z,-0.69
2023-02-05T01:27:27.531Z,-0.74
2023-02-05T01:28:31.799Z,-0.70
2023-02-05T01:29:36.675Z,-0.74
2023-02-05T01:30:42.108Z,-0.75
2023-02-05T01:31:46.716Z,-0.75
2023-02-05T01:32:50.932Z,-0.73
2023-02-05T01:33:54.963Z,-0.69
2023-02-05T01:34:59.358Z,-0.70
2023-02-05T01:36:03.902Z,-0.67
2023-02-05T01:37:19.369Z,-0.69
2023-02-05T01:38:31.711Z,-0.80
2023-02-05T01:39:37.886Z,-0.69
2023-02-05T01:40:41.871Z,-0.63
2023-02-05T01:41:46.945Z,-0.60
2023-02-05T01:42:51.096Z,-0.60
2023-02-05T01:44:25.031Z,-0.66
2023-02-05T01:45:54.930Z,-0.61
2023-02-05T01:46:58.989Z,-0.59
2023-02-05T01:48:06.276Z,-0.55
2023-02-05T01:49:40.061Z,-0.54
2023-02-05T01:50:53.705Z,-0.52
2023-02-05T01:52:17.528Z,-0.48
2023-02-05T01:53:36.536Z,-0.50
2023-02-05T01:54:46.899Z,-0.59
2023-02-05T01:56:25.708Z,-0.61
2023-02-05T01:57:29.403Z,-0.64
2023-02-05T01:59:21.895Z,-0.72
2023-02-05T02:00:27.815Z,-0.69
2023-02-05T02:01:40.981Z,-0.72
2023-02-05T02:02:54.612Z,-0.68
2023-02-05T02:04:40.267Z,-0.60
2023-02-05T02:05:46.627Z,-0.55
2023-02-05T02:06:56.698Z,-0.54
2023-02-05T02:08:06.569Z,-0.52
2023-02-05T02:09:29.187Z,-0.52
2023-02-05T02:10:50.942Z,-0.54
2023-02-05T02:12:05.475Z,-0.60
2023-02-05T02:13:24.718Z,-0.61
2023-02-05T02:14:36.245Z,-0.61
2023-02-05T02:15:43.726Z,-0.64
2023-02-05T02:16:54.498Z,-0.60
2023-02-05T02:18:23.185Z,-0.59
2023-02-05T02:20:22.244Z,-0.62
2023-02-05T02:22:16.571Z,-0.72
2023-02-05T02:24:25.963Z,-0.76
2023-02-05T02:26:34.659Z,-1.01
2023-02-05T02:27:47.081Z,-0.95
2023-02-05T02:29:21.911Z,-0.94
2023-02-05T02:30:52.276Z,-1.02
2023-02-05T02:32:27.029Z,-0.99
2023-02-05T02:34:00.933Z,-1.01
2023-02-05T02:35:45.862Z,-1.01
2023-02-05T02:37:32.641Z,-1.00
2023-02-05T02:38:51.020Z,-1.04
2023-02-05T02:40:33.185Z,-1.02
2023-02-05T02:42:06.942Z,-1.11
2023-02-05T02:43:44.324Z,-1.14
2023-02-05T02:45:09.165Z,-1.13
2023-02-05T02:46:53.109Z,-1.20
2023-02-05T02:48:04.977Z,-1.23
2023-02-05T02:49:28.974Z,-1.19
2023-02-05T02:50:50.931Z,-1.19
2023-02-05T02:52:00.123Z,-1.13
2023-02-05T02:53:26.856Z,-1.12
2023-02-05T02:54:36.935Z,-1.10
2023-02-05T02:55:49.505Z,-1.04
2023-02-05T02:56:59.134Z,-1.01
2023-02-05T02:58:19.239Z,-1.04
2023-02-05T02:59:30.678Z,-1.07
2023-02-05T06:52:26.854Z,-1.68
